createdAt,value
2022-12-03T00:03:39.660Z,1013.1
2022-12-03T00:08:45.730Z,1013.1
2022-12-03T00:13:51.831Z,1013
2022-12-03T00:18:57.964Z,1013
2022-12-03T00:24:04.047Z,1013
2022-12-03T00:29:10.189Z,1012.9
2022-12-03T00:34:16.258Z,1012.8
2022-12-03T00:39:21.403Z,1012.9
2022-12-03T00:44:27.439Z,1013
2022-12-03T00:49:33.540Z,1013
2022-12-03T00:54:39.635Z,1012.9
2022-12-03T00:59:45.746Z,1012.9
2022-12-03T01:04:51.847Z,1013
2022-12-03T01:09:57.933Z,1013
2022-12-03T01:15:04.072Z,1013.1
2022-12-03T01:20:10.141Z,1013.1
2022-12-03T01:25:16.396Z,1013.1
2022-12-03T01:30:22.334Z,1013
2022-12-03T01:35:28.446Z,1012.9
2022-12-03T01:40:34.597Z,1012.9
2022-12-03T01:45:39.737Z,1013
2022-12-03T01:50:45.777Z,1013
2022-12-03T01:55:51.842Z,1012.9
2022-12-03T02:00:57.955Z,1012.9
2022-12-03T02:06:04.111Z,1012.9
2022-12-03T02:11:10.139Z,1013
2022-12-03T02:16:16.243Z,1012.9
2022-12-03T02:21:22.356Z,1013
2022-12-03T02:26:28.449Z,1012.9
2022-12-03T02:31:34.544Z,1012.9
2022-12-03T02:36:40.649Z,1012.9
2022-12-03T02:41:46.744Z,1012.8
2022-12-03T02:46:52.918Z,1012.8
2022-12-03T02:51:57.965Z,1012.9
2022-12-03T02:57:04.049Z,1013
2022-12-03T03:02:10.140Z,1013
2022-12-03T03:07:16.245Z,1012.9
2022-12-03T03:12:22.372Z,1012.9
2022-12-03T03:17:28.506Z,1012.9
2022-12-03T03:22:34.562Z,1012.9
2022-12-03T03:27:40.673Z,1013
2022-12-03T03:32:46.810Z,1012.9
2022-12-03T03:37:52.853Z,1012.9
2022-12-03T03:42:58.963Z,1012.9
2022-12-03T03:48:05.071Z,1012.8
2022-12-03T03:53:11.149Z,1012.8
2022-12-03T03:58:16.267Z,1012.8
2022-12-03T04:03:22.374Z,1012.7
2022-12-03T04:08:28.489Z,1012.7
2022-12-03T04:13:34.561Z,1012.7
2022-12-03T04:18:40.667Z,1012.7
2022-12-03T04:23:46.820Z,1012.7
2022-12-03T04:28:52.873Z,1012.6
2022-12-03T04:33:58.949Z,1012.6
2022-12-03T04:39:05.053Z,1012.6
2022-12-03T04:44:11.167Z,1012.5
2022-12-03T04:49:17.257Z,1012.5
2022-12-03T04:54:23.362Z,1012.5
2022-12-03T04:59:29.450Z,1012.4
2022-12-03T05:04:34.627Z,1012.4
2022-12-03T05:09:40.678Z,1012.5
2022-12-03T05:14:46.789Z,1012.4
2022-12-03T05:19:52.878Z,1012.4
2022-12-03T05:24:59.000Z,1012.4
2022-12-03T05:30:05.066Z,1012.4
2022-12-03T05:40:17.283Z,1012.4
2022-12-03T05:45:23.454Z,1012.3
2022-12-03T05:50:29.465Z,1012.5
2022-12-03T05:55:35.568Z,1012.5
2022-12-03T06:00:41.666Z,1012.4
2022-12-03T06:05:47.772Z,1012.4
2022-12-03T06:10:52.877Z,1012.3
2022-12-03T06:15:58.989Z,1012.4
2022-12-03T06:21:05.075Z,1012.3
2022-12-03T06:26:11.183Z,1012.5
2022-12-03T06:31:17.288Z,1012.5
2022-12-03T06:36:23.400Z,1012.4
2022-12-03T06:41:29.476Z,1012.5
2022-12-03T06:46:35.572Z,1012.5
2022-12-03T06:51:41.688Z,1012.5
2022-12-03T06:56:47.817Z,1012.4
2022-12-03T07:01:53.878Z,1012.5
2022-12-03T07:07:00.005Z,1012.4
2022-12-03T07:12:06.056Z,1012.5
2022-12-03T07:17:11.220Z,1012.4
2022-12-03T07:22:17.359Z,1012.4
2022-12-03T07:27:23.427Z,1012.3
2022-12-03T07:32:29.497Z,1012.4
2022-12-03T07:37:35.617Z,1012.4
2022-12-03T07:42:41.699Z,1012.4
2022-12-03T07:47:47.848Z,1012.4
2022-12-03T07:52:53.931Z,1012.4
2022-12-03T07:57:59.985Z,1012.4
2022-12-03T08:03:06.075Z,1012.5
2022-12-03T08:08:12.166Z,1012.5
2022-12-03T08:13:18.359Z,1012.4
2022-12-03T08:18:24.446Z,1012.4
2022-12-03T08:23:29.549Z,1012.4
2022-12-03T08:28:35.666Z,1012.3
2022-12-03T08:33:41.688Z,1012.3
2022-12-03T08:38:47.811Z,1012.3
2022-12-03T08:43:53.894Z,1012.3
2022-12-03T08:49:00.027Z,1012.3
2022-12-03T08:54:06.129Z,1012.2
2022-12-03T08:59:12.245Z,1012.3
2022-12-03T09:04:18.283Z,1012.3
2022-12-03T09:09:24.443Z,1012.3
2022-12-03T09:14:30.494Z,1012.3
2022-12-03T09:19:36.625Z,1012.2
2022-12-03T09:24:42.669Z,1012.2
2022-12-03T09:29:47.940Z,1012.1
2022-12-03T09:34:54.108Z,1012.2
2022-12-03T09:40:00.096Z,1012.3
2022-12-03T09:45:06.093Z,1012.3
2022-12-03T09:50:12.328Z,1012.2
2022-12-03T09:55:18.282Z,1012.1
2022-12-03T10:00:24.374Z,1012.1
2022-12-03T10:05:30.485Z,1012.2
2022-12-03T10:10:36.581Z,1012
2022-12-03T10:15:42.675Z,1012
2022-12-03T10:20:48.779Z,1012
2022-12-03T10:25:54.863Z,1011.9
2022-12-03T10:36:07.052Z,1011.8
2022-12-03T10:41:12.181Z,1011.7
2022-12-03T10:46:18.268Z,1011.7
2022-12-03T10:51:24.357Z,1011.8
2022-12-03T10:56:30.469Z,1011.7
2022-12-03T11:01:36.558Z,1011.7
2022-12-03T11:06:42.666Z,1011.7
2022-12-03T11:11:48.769Z,1011.6
2022-12-03T11:16:54.849Z,1011.6
2022-12-03T11:22:00.958Z,1011.5
2022-12-03T11:27:07.056Z,1011.6
2022-12-03T11:32:13.146Z,1011.5
2022-12-03T11:37:19.240Z,1011.3
2022-12-03T11:42:25.357Z,1011.3
2022-12-03T11:47:30.476Z,1011.2
2022-12-03T11:52:36.561Z,1011.2
2022-12-03T11:57:42.644Z,1011.2
2022-12-03T12:02:48.742Z,1011.1
2022-12-03T12:07:54.893Z,1011.1
2022-12-03T12:13:00.955Z,1011.1
2022-12-03T12:18:07.028Z,1011
2022-12-03T12:23:13.130Z,1011
2022-12-03T12:28:19.249Z,1010.9
2022-12-03T12:33:25.364Z,1010.9
2022-12-03T12:38:31.438Z,1010.7
2022-12-03T12:43:37.534Z,1010.6
2022-12-03T12:48:43.621Z,1010.7
2022-12-03T12:53:48.748Z,1010.8
2022-12-03T12:58:54.962Z,1010.8
2022-12-03T13:04:01.018Z,1010.7
2022-12-03T13:09:07.021Z,1010.7
2022-12-03T13:19:19.267Z,1010.6
2022-12-03T13:24:25.357Z,1010.6
2022-12-03T13:29:31.566Z,1010.6
2022-12-03T13:34:37.522Z,1010.6
2022-12-03T13:39:43.748Z,1010.5
2022-12-03T13:44:49.956Z,1010.5
2022-12-03T13:49:56.004Z,1010.4
2022-12-03T13:55:02.155Z,1010.5
2022-12-03T14:00:07.054Z,1010.5
2022-12-03T14:05:13.141Z,1010.6
2022-12-03T14:10:19.411Z,1010.5
2022-12-03T14:15:25.543Z,1010.5
2022-12-03T14:20:31.530Z,1010.5
2022-12-03T14:25:37.584Z,1010.5
2022-12-03T14:30:43.655Z,1010.5
2022-12-03T14:35:49.821Z,1010.6
2022-12-03T14:40:55.975Z,1010.6
2022-12-03T14:46:01.983Z,1010.7
2022-12-03T14:51:08.060Z,1010.6
2022-12-03T14:56:14.155Z,1010.6
2022-12-03T15:01:20.260Z,1010.5
2022-12-03T15:06:25.427Z,1010.6
2022-12-03T15:11:31.461Z,1010.6
2022-12-03T15:16:37.564Z,1010.6
2022-12-03T15:21:43.811Z,1010.6
2022-12-03T15:31:56.027Z,1010.5
2022-12-03T15:37:00.979Z,1010.6
2022-12-03T15:42:07.113Z,1010.7
2022-12-03T15:47:13.182Z,1010.6
2022-12-03T15:52:19.469Z,1010.6
2022-12-03T15:57:25.401Z,1010.5
2022-12-03T16:02:31.681Z,1010.5
2022-12-03T16:07:37.658Z,1010.3
2022-12-03T16:12:43.821Z,1010.5
2022-12-03T16:17:49.846Z,1010.5
2022-12-03T16:22:56.088Z,1010.4
2022-12-03T16:28:02.050Z,1010.5
2022-12-03T16:33:08.236Z,1010.5
2022-12-03T16:38:14.212Z,1010.5
2022-12-03T16:43:19.458Z,1010.4
2022-12-03T16:48:25.513Z,1010.3
2022-12-03T16:53:31.567Z,1010.3
2022-12-03T16:58:37.720Z,1010.4
2022-12-03T17:03:43.763Z,1010.3
2022-12-03T17:08:49.976Z,1010.3
2022-12-03T17:13:56.085Z,1010.3
2022-12-03T17:19:02.141Z,1010.2
2022-12-03T17:24:08.188Z,1010.2
2022-12-03T17:29:14.369Z,1010.2
2022-12-03T17:34:20.372Z,1010.3
2022-12-03T17:39:26.504Z,1010.2
2022-12-03T17:44:32.617Z,1010.1
2022-12-03T17:49:37.801Z,1010.1
2022-12-03T17:54:43.824Z,1010.1
2022-12-03T17:59:49.910Z,1010.1
2022-12-03T18:04:56.039Z,1010.1
2022-12-03T18:10:02.057Z,1010.1
2022-12-03T18:15:08.244Z,1010.2
2022-12-03T18:20:14.249Z,1010.1
2022-12-03T18:25:20.375Z,1010.1
2022-12-03T18:30:26.545Z,1010.1
2022-12-03T18:35:32.535Z,1010
2022-12-03T18:40:38.789Z,1010
2022-12-03T18:45:44.776Z,1009.9
2022-12-03T18:50:50.818Z,1009.9
2022-12-03T18:55:56.022Z,1009.9
2022-12-03T19:01:02.157Z,1009.9
2022-12-03T19:06:08.324Z,1009.9
2022-12-03T19:11:14.395Z,1010
2022-12-03T19:16:20.320Z,1010
2022-12-03T19:21:26.570Z,1010
2022-12-03T19:26:32.542Z,1009.9
2022-12-03T19:31:38.634Z,1009.9
2022-12-03T19:36:44.893Z,1009.9
2022-12-03T19:41:50.843Z,1009.9
2022-12-03T19:46:56.984Z,1009.9
2022-12-03T19:52:03.041Z,1009.8
2022-12-03T19:57:09.275Z,1009.9
2022-12-03T20:02:14.356Z,1009.9
2022-12-03T20:07:20.456Z,1009.8
2022-12-03T20:12:26.555Z,1009.8
2022-12-03T20:17:32.633Z,1009.7
2022-12-03T20:22:38.782Z,1009.7
2022-12-03T20:27:44.737Z,1009.7
2022-12-03T20:32:50.937Z,1009.7
2022-12-03T20:37:56.995Z,1009.7
2022-12-03T20:43:03.144Z,1009.7
2022-12-03T20:48:09.148Z,1009.8
2022-12-03T20:53:15.270Z,1009.7
2022-12-03T20:58:21.410Z,1009.8
2022-12-03T21:03:27.514Z,1009.8
2022-12-03T21:08:32.561Z,1009.7
2022-12-03T21:13:38.803Z,1009.6
2022-12-03T21:18:44.769Z,1009.6
2022-12-03T21:23:50.929Z,1009.6
2022-12-03T21:28:56.947Z,1009.7
2022-12-03T21:34:03.064Z,1009.6
2022-12-03T21:39:09.269Z,1009.6
2022-12-03T21:44:15.331Z,1009.5
2022-12-03T21:49:21.430Z,1009.6
2022-12-03T21:54:27.474Z,1009.6
2022-12-03T21:59:33.644Z,1009.6
2022-12-03T22:04:39.660Z,1009.6
2022-12-03T22:09:45.821Z,1009.5
2022-12-03T22:14:50.991Z,1009.5
2022-12-03T22:19:57.138Z,1009.5
2022-12-03T22:25:03.101Z,1009.4
2022-12-03T22:30:09.182Z,1009.5
2022-12-03T22:35:15.345Z,1009.5
2022-12-03T22:40:21.397Z,1009.4
2022-12-03T22:45:27.617Z,1009.4
2022-12-03T22:50:33.575Z,1009.3
2022-12-03T22:55:39.719Z,1009.3
2022-12-03T23:00:45.784Z,1009.2
2022-12-03T23:05:51.860Z,1009.2
2022-12-03T23:10:58.025Z,1009.2
2022-12-03T23:16:04.249Z,1009.2
2022-12-03T23:21:09.215Z,1009.1
2022-12-03T23:26:15.377Z,1009.1
2022-12-03T23:31:21.405Z,1009
2022-12-03T23:36:27.597Z,1009.1
2022-12-03T23:41:33.639Z,1008.9
2022-12-03T23:46:39.781Z,1008.9
2022-12-03T23:51:45.849Z,1009
2022-12-03T23:56:51.900Z,1009
